Chicago Midway International Airport
KMDW : now visible

Airfield :











YOU CAN JOIN US ON...

 
LOGIN :

Register | Disclaimer

   EN    FR    IT 

 









Legend :    VFR   Marginal VFR   IFR   Intensive IFR   Very Intensive IFR
Visi :
Ceiling :
>= 8 km
>= 3000ft
5 to 8 km
1000 to 3000 ft
1500m to 5 km
500 to 1000 ft
800 to 1500m
200 to 500 ft
< 800m
< 200 ft
Symbols :   Thunderstorms  Fog  Heavy snow  Heavy precipitations  Wind > 20 kt






- Airport Elevation : 620 ft
- IATA code : MDW


KMDW - Chicago Midway International

CURRENT METAR :
  • 191553Z 23012KT 10SM FEW050 FEW250 28/16 A2998 RMK AO2 SLP141 T02780156

EXPIRED METARs :
  • 191453Z 22011G19KT 10SM FEW045 FEW250 27/16 A2998 RMK AO2 SLP143 T02670156 52005
  • 191353Z 23009KT 10SM FEW060 FEW250 26/16 A2998 RMK AO2 SLP141 T02560161

TAF KMDW
Valid from the 19 at 15:00 until the 20 at 18:00 UTC


191501Z 1915/2018 21011G16KT P6SM SCT060 SCT250
FM192300 17008KT P6SM SCT050 BKN120
FM200600 19007KT P6SM VCSH BKN050 OVC090
TEMPO 2007/2011 3SM -SHRA BKN035
KZAU FIR / North America



MET'MAP, your aeronautical weather chart ! - Copyright ORBIFLY December 2007 - Disclaimer

ORBIFLY MET'MAP TEAM :

Programming & Development : Alexandra Zaïnal
Original concept : Baudouin d'Aumeries
Technical & hardware support : Manuel Goepfert
Assistance : Marc-Olivier Méhu




SOURCES & CREDITS :

   NOAA       Earth
Advisory